Time;durP1;ratioP1;P1;durP2;ratioP2;P2;SDS_P1;SDS_P2;PMS_P1;PMS_P2;Temp;Humidity;BMP_temperature;BMP_pressure;BME280_temperature;BME280_humidity;BME280_pressure;Samples;Min_cycle;Max_cycle;Signal;HPM_P1;HPM_P2
2021/12/20 00:02:03;;;;;;;;;;;;;;;-1.12;100.00;101397.41;5014779;28;1373;-73
2021/12/20 00:04:30;;;;;;;;;;;;;;;-1.17;100.00;101386.00;5032557;28;1964;-72
2021/12/20 00:06:57;;;;;;;;;;;;;;;-1.20;100.00;101387.81;5032292;28;718;-74
2021/12/20 00:09:23;;;;;;;;;;;;;;;-1.19;100.00;101394.88;5028210;28;1496;-72
2021/12/20 00:11:49;;;;;;;;;;;;;;;-1.18;100.00;101395.75;5012314;28;1300;-71
2021/12/20 00:14:15;;;;;;;;;;;;;;;-1.18;100.00;101395.75;5035295;22;3558;-76
2021/12/20 00:16:42;;;;;;;;;;;;;;;-1.19;100.00;101399.31;5030904;28;942;-76
2021/12/20 00:19:09;;;;;;;;;;;;;;;-1.21;100.00;101404.69;5031892;28;1426;-76
2021/12/20 00:21:36;;;;;;;;;;;;;;;-1.23;100.00;101410.97;5031702;28;808;-76
2021/12/20 00:24:03;;;;;;;;;;;;;;;-1.25;100.00;101411.00;5031877;28;1981;-75
2021/12/20 00:26:29;;;;;;;;;;;;;;;-1.28;100.00;101407.50;5031382;28;854;-77
2021/12/20 00:28:55;;;;;;;;;;;;;;;-1.27;100.00;101404.84;5013524;28;1353;-76
2021/12/20 00:31:22;;;;;;;;;;;;;;;-1.26;100.00;101403.03;5031701;28;787;-77
2021/12/20 00:33:48;;;;;;;;;;;;;;;-1.27;100.00;101409.28;5032009;28;1408;-77
2021/12/20 00:36:21;;;;;;;;;;;;;;;-1.29;100.00;101409.31;5030986;28;947;-77
2021/12/20 00:41:32;;;;;;;;;;;;;;;-1.31;100.00;101404.91;5031364;28;1225;-76
2021/12/20 00:43:59;;;;;;;;;;;;;;;-1.31;100.00;101415.56;5013634;28;1923;-76
2021/12/20 00:46:26;;;;;;;;;;;;;;;-1.35;100.00;101420.06;5030909;28;1007;-76
2021/12/20 00:48:52;;;;;;;;;;;;;;;-1.33;100.00;101420.06;5030673;28;1445;-76
2021/12/20 00:51:19;;;;;;;;;;;;;;;-1.32;100.00;101424.47;5014018;28;821;-77
2021/12/20 00:53:45;;;;;;;;;;;;;;;-1.32;100.00;101413.81;5031568;28;1310;-77
2021/12/20 00:56:13;;;;;;;;;;;;;;;-1.32;100.00;101413.81;5031565;28;777;-77
2021/12/20 00:58:39;;;;;;;;;;;;;;;-1.27;100.00;101409.28;5031107;28;1409;-77
2021/12/20 01:01:06;;;;;;;;;;;;;;;-1.26;100.00;101413.69;5009091;28;1603;-77
2021/12/20 01:03:33;;;;;;;;;;;;;;;-1.29;100.00;101416.44;5012198;28;1998;-77
2021/12/20 01:06:01;;;;;;;;;;;;;;;-1.29;100.00;101425.28;5011637;28;951;-77
2021/12/20 01:08:30;;;;;;;;;;;;;;;-1.35;100.00;101436.97;5014935;28;1449;-77
2021/12/20 01:10:57;;;;;;;;;;;;;;;-1.33;100.00;101425.41;5013944;28;752;-77
2021/12/20 01:13:28;;;;;;;;;;;;;;;-1.32;100.00;101421.81;5014168;28;1326;-77
2021/12/20 01:15:57;;;;;;;;;;;;;;;-1.30;100.00;101435.97;5031062;28;1010;-76
2021/12/20 01:18:24;;;;;;;;;;;;;;;-1.33;100.00;101436.06;5013008;28;1501;-77
2021/12/20 01:20:51;;;;;;;;;;;;;;;-1.33;100.00;101452.03;5031484;28;772;-77
2021/12/20 01:23:17;;;;;;;;;;;;;;;-1.36;100.00;101452.97;5031466;28;982;-77
2021/12/20 01:25:44;;;;;;;;;;;;;;;-1.40;100.00;101451.28;5012837;28;1966;-77
2021/12/20 01:28:10;;;;;;;;;;;;;;;-1.44;100.00;101453.13;5030219;28;1338;-77
2021/12/20 01:30:39;;;;;;;;;;;;;;;-1.42;100.00;101447.75;5030525;28;818;-77
2021/12/20 01:33:08;;;;;;;;;;;;;;;-1.43;100.00;101432.69;5030639;28;1034;-76
2021/12/20 01:35:34;;;;;;;;;;;;;;;-1.42;100.00;101445.97;5030340;28;1298;-76
2021/12/20 01:38:00;;;;;;;;;;;;;;;-1.39;100.00;101435.28;5012201;28;1393;-77
2021/12/20 01:40:27;;;;;;;;;;;;;;;-1.37;100.00;101437.91;5012568;28;852;-77
2021/12/20 01:42:55;;;;;;;;;;;;;;;-1.39;100.00;101450.34;5012877;28;1045;-77
2021/12/20 01:45:23;;;;;;;;;;;;;;;-1.45;100.00;101456.69;5012460;28;1977;-76
2021/12/20 01:48:01;;;;;;;;;;;;;;;-1.52;100.00;101447.06;5029446;28;1500;-76
2021/12/20 01:50:45;;;;;;;;;;;;;;;-1.50;100.00;101452.38;5030216;28;966;-77
2021/12/20 01:53:12;;;;;;;;;;;;;;;-1.53;100.00;101448.84;5030391;28;780;-77
2021/12/20 01:55:39;;;;;;;;;;;;;;;-1.54;100.00;101440.88;5012259;28;1365;-76
2021/12/20 01:58:06;;;;;;;;;;;;;;;-1.50;100.00;101447.91;5029766;28;1397;-77
2021/12/20 02:00:40;;;;;;;;;;;;;;;-1.54;100.00;101454.19;5030373;28;954;-77
2021/12/20 02:03:08;;;;;;;;;;;;;;;-1.58;100.00;101450.72;4996155;28;1189;-77
2021/12/20 02:05:49;;;;;;;;;;;;;;;-1.60;100.00;101449.88;5029350;28;1919;-76
2021/12/20 02:08:19;;;;;;;;;;;;;;;-1.57;100.00;101448.94;5012080;28;1429;-76
2021/12/20 02:10:46;;;;;;;;;;;;;;;-1.59;100.00;101448.97;5012579;28;998;-77
2021/12/20 02:13:13;;;;;;;;;;;;;;;-1.59;100.00;101448.97;5031866;28;788;-77
2021/12/20 02:15:39;;;;;;;;;;;;;;;-1.58;100.00;101450.72;5030688;28;1272;-76
2021/12/20 02:18:05;;;;;;;;;;;;;;;-1.61;100.00;101457.91;4995858;28;1442;-76
2021/12/20 02:20:34;;;;;;;;;;;;;;;-1.64;100.00;101452.63;5030387;28;990;-76
2021/12/20 02:23:01;;;;;;;;;;;;;;;-1.66;100.00;101454.44;5031498;28;891;-77
2021/12/20 02:25:28;;;;;;;;;;;;;;;-1.60;100.00;101449.88;5013798;28;1915;-77
2021/12/20 02:27:54;;;;;;;;;;;;;;;-1.57;100.00;101448.94;5029202;28;1536;-77
2021/12/20 02:30:48;;;;;;;;;;;;;;;-1.57;100.00;101443.63;5029845;28;1012;-77
2021/12/20 02:38:44;;;;;;;;;;;;;;;-1.59;100.00;101451.66;5001858;28;1023;-75
2021/12/20 02:41:13;;;;;;;;;;;;;;;-1.63;100.00;101463.25;4992025;28;1226;-74
2021/12/20 02:43:42;;;;;;;;;;;;;;;-1.66;100.00;101455.31;5009933;28;1314;-75
2021/12/20 02:46:25;;;;;;;;;;;;;;;-1.69;100.00;101447.38;5009517;28;1918;-76
2021/12/20 02:48:51;;;;;;;;;;;;;;;-1.68;100.00;101449.16;5010117;28;687;-76
2021/12/20 02:51:19;;;;;;;;;;;;;;;-1.67;100.00;101450.91;5009903;28;875;-75
2021/12/20 02:53:45;;;;;;;;;;;;;;;-1.68;100.00;101459.81;5011638;28;1436;-75
2021/12/20 02:56:11;;;;;;;;;;;;;;;-1.70;100.00;101462.50;4995502;28;1353;-75
2021/12/20 02:58:37;;;;;;;;;;;;;;;-1.75;100.00;101458.13;5013418;28;912;-75
2021/12/20 03:01:04;;;;;;;;;;;;;;;-1.74;100.00;101460.81;4996068;28;1152;-75
2021/12/20 03:03:30;;;;;;;;;;;;;;;-1.73;100.00;101456.34;5014054;28;1400;-75
2021/12/20 03:05:56;;;;;;;;;;;;;;;-1.77;100.00;101452.84;4995566;28;1985;-75
2021/12/20 03:08:24;;;;;;;;;;;;;;;-1.81;100.00;101456.47;5004106;28;1563;-75
2021/12/20 03:10:50;;;;;;;;;;;;;;;-1.84;100.00;101456.53;4993915;28;1037;-75
2021/12/20 03:13:17;;;;;;;;;;;;;;;-1.83;100.00;101462.72;4993977;28;1013;-75
2021/12/20 03:15:43;;;;;;;;;;;;;;;-1.86;100.00;101448.59;4976000;28;1358;-75
2021/12/20 03:18:09;;;;;;;;;;;;;;;-1.90;100.00;101460.19;4975703;28;987;-75
2021/12/20 03:20:36;;;;;;;;;;;;;;;-1.96;100.00;101467.41;4976434;28;824;-76
2021/12/20 03:23:02;;;;;;;;;;;;;;;-1.99;100.00;101464.78;4993646;28;921;-75
2021/12/20 03:25:29;;;;;;;;;;;;;;;-2.01;100.00;101464.81;4993515;28;1918;-76
2021/12/20 03:27:56;;;;;;;;;;;;;;;-2.00;100.00;101463.91;4975777;28;1003;-76
2021/12/20 03:30:25;;;;;;;;;;;;;;;-2.02;100.00;101466.59;4993513;28;823;-76
2021/12/20 03:32:52;;;;;;;;;;;;;;;-2.02;100.00;101463.06;4993794;28;987;-76
2021/12/20 03:35:18;;;;;;;;;;;;;;;-2.05;100.00;101463.09;4975850;28;1377;-76
2021/12/20 03:37:44;;;;;;;;;;;;;;;-2.07;100.00;101457.81;4992860;28;983;-76
2021/12/20 03:40:11;;;;;;;;;;;;;;;-2.08;100.00;101468.50;4993431;28;912;-76
2021/12/20 03:42:42;;;;;;;;;;;;;;;-2.12;100.00;101472.13;4975848;28;736;-76
2021/12/20 03:45:08;;;;;;;;;;;;;;;-2.20;100.00;101472.22;4993193;28;2006;-76
2021/12/20 03:47:35;;;;;;;;;;;;;;;-2.27;100.00;101481.19;4992978;28;971;-77
2021/12/20 03:50:01;;;;;;;;;;;;;;;-2.30;100.00;101470.63;4993255;28;999;-76
2021/12/20 03:52:27;;;;;;;;;;;;;;;-2.32;100.00;101473.31;4975906;28;789;-76
2021/12/20 03:54:53;;;;;;;;;;;;;;;-2.31;100.00;101469.75;4992636;28;1314;-75
2021/12/20 03:57:20;;;;;;;;;;;;;;;-2.28;100.00;101471.47;4975343;28;774;-76
2021/12/20 03:59:48;;;;;;;;;;;;;;;-2.29;100.00;101472.38;4993097;28;769;-75
2021/12/20 04:02:17;;;;;;;;;;;;;;;-2.30;100.00;101470.63;4993134;28;1030;-76
2021/12/20 04:04:43;;;;;;;;;;;;;;;-2.27;100.00;101471.47;4975011;28;1910;-76
2021/12/20 04:07:09;;;;;;;;;;;;;;;-2.28;100.00;101479.47;4992909;28;781;-77
2021/12/20 04:09:36;;;;;;;;;;;;;;;-2.27;100.00;101482.09;4993152;28;1026;-75
2021/12/20 04:12:02;;;;;;;;;;;;;;;-2.27;100.00;101487.41;4992723;28;872;-76
2021/12/20 04:14:29;;;;;;;;;;;;;;;-2.31;100.00;101483.03;4975451;28;1347;-76
2021/12/20 04:16:56;;;;;;;;;;;;;;;-2.31;100.00;101480.38;4975075;28;805;-75
2021/12/20 04:19:22;;;;;;;;;;;;;;;-2.29;100.00;101483.03;4992486;28;829;-76
2021/12/20 04:21:49;;;;;;;;;;;;;;;-2.26;100.00;101482.97;4992736;28;1050;-76
2021/12/20 04:24:15;;;;;;;;;;;;;;;-2.30;100.00;101470.63;4992686;28;1298;-76
2021/12/20 04:26:41;;;;;;;;;;;;;;;-2.26;100.00;101483.84;4992073;28;1911;-75
2021/12/20 04:29:08;;;;;;;;;;;;;;;-2.27;100.00;101476.78;4974875;28;1058;-75
2021/12/20 04:31:35;;;;;;;;;;;;;;;-2.23;100.00;101491.78;4992290;28;793;-76
2021/12/20 04:34:03;;;;;;;;;;;;;;;-2.29;100.00;101489.19;4992240;28;1374;-76
2021/12/20 04:36:32;;;;;;;;;;;;;;;-2.28;100.00;101483.00;4991898;28;991;-75
2021/12/20 04:38:58;;;;;;;;;;;;;;;-2.22;100.00;101480.25;4992130;28;995;-75
2021/12/20 04:41:25;;;;;;;;;;;;;;;-2.21;100.00;101484.63;4974755;28;924;-75
2021/12/20 04:43:51;;;;;;;;;;;;;;;-2.19;100.00;101481.97;4992044;28;1419;-76
2021/12/20 04:46:17;;;;;;;;;;;;;;;-2.19;100.00;101485.50;4992579;28;1980;-76
2021/12/20 04:48:44;;;;;;;;;;;;;;;-2.17;100.00;101485.47;5031339;28;824;-76
2021/12/20 04:51:11;;;;;;;;;;;;;;;-2.21;100.00;101491.75;5031350;28;970;-76
2021/12/20 04:53:38;;;;;;;;;;;;;;;-2.19;100.00;101487.31;5013544;28;1328;-75
2021/12/20 04:56:04;;;;;;;;;;;;;;;-2.19;100.00;101498.81;5012399;28;1488;-75
2021/12/20 04:58:30;;;;;;;;;;;;;;;-2.23;100.00;101497.09;5031393;28;1472;-76
2021/12/20 05:00:57;;;;;;;;;;;;;;;-2.19;100.00;101501.47;5013506;28;841;-75
2021/12/20 05:03:23;;;;;;;;;;;;;;;-2.17;100.00;101509.41;5013312;28;1415;-76
2021/12/20 05:05:49;;;;;;;;;;;;;;;-2.17;100.00;101503.22;5030741;28;2105;-75
2021/12/20 05:08:17;;;;;;;;;;;;;;;-2.22;100.00;101500.63;5030655;28;1377;-75
2021/12/20 05:10:43;;;;;;;;;;;;;;;-2.21;100.00;101499.72;5031257;28;973;-76
2021/12/20 05:13:10;;;;;;;;;;;;;;;-2.23;100.00;101507.75;5031089;28;918;-75
2021/12/20 05:15:37;;;;;;;;;;;;;;;-2.28;100.00;101512.25;5019767;28;1464;-78
2021/12/20 05:18:04;;;;;;;;;;;;;;;-2.28;100.00;101506.06;4991697;28;959;-75
2021/12/20 05:20:31;;;;;;;;;;;;;;;-2.26;100.00;101514.88;5005224;28;1499;-74
2021/12/20 05:22:57;;;;;;;;;;;;;;;-2.24;100.00;101515.75;4974088;28;979;-75
2021/12/20 05:25:25;;;;;;;;;;;;;;;-2.17;100.00;101525.38;4981049;28;1977;-75
2021/12/20 05:27:52;;;;;;;;;;;;;;;-2.19;100.00;101516.56;5010584;28;896;-76
2021/12/20 05:30:18;;;;;;;;;;;;;;;-2.22;100.00;101519.25;4992705;28;1428;-73
2021/12/20 05:32:45;;;;;;;;;;;;;;;-2.21;100.00;101524.53;5010584;28;1578;-73
2021/12/20 05:35:12;;;;;;;;;;;;;;;-2.23;100.00;101522.81;5010408;28;1511;-75
2021/12/20 05:37:39;;;;;;;;;;;;;;;-2.27;100.00;101535.28;4975480;28;1559;-75
2021/12/20 05:40:06;;;;;;;;;;;;;;;-2.28;100.00;101540.63;4992739;28;1507;-76
2021/12/20 05:42:33;;;;;;;;;;;;;;;-2.32;100.00;101541.59;5028486;28;1525;-72
2021/12/20 05:45:00;;;;;;;;;;;;;;;-2.36;100.00;101530.97;5008646;28;1914;-73
2021/12/20 05:47:26;;;;;;;;;;;;;;;-2.35;100.00;101545.16;4992196;28;1468;-73
2021/12/20 05:49:53;;;;;;;;;;;;;;;-2.36;100.00;101541.63;5008088;28;1545;-72
2021/12/20 05:52:19;;;;;;;;;;;;;;;-2.34;100.00;101543.38;5009849;28;1589;-73
2021/12/20 05:54:46;;;;;;;;;;;;;;;-2.33;100.00;101531.84;5010440;28;1314;-75
2021/12/20 05:57:12;;;;;;;;;;;;;;;-2.33;100.00;101534.50;5012452;28;1449;-74
2021/12/20 05:59:40;;;;;;;;;;;;;;;-2.39;100.00;101544.31;5030553;28;958;-75
2021/12/20 06:02:06;;;;;;;;;;;;;;;-2.43;100.00;101539.94;5030269;28;978;-73
2021/12/20 06:04:33;;;;;;;;;;;;;;;-2.46;100.00;101545.31;5012673;28;1302;-75
2021/12/20 06:06:59;;;;;;;;;;;;;;;-2.50;100.00;101556.88;5012553;28;2009;-75
2021/12/20 06:09:25;;;;;;;;;;;;;;;-2.50;100.00;101556.00;5030340;28;1041;-75
2021/12/20 06:11:54;;;;;;;;;;;;;;;-2.45;100.00;101552.38;5030280;28;1515;-76
2021/12/20 06:14:20;;;;;;;;;;;;;;;-2.41;100.00;101551.44;5029830;28;1294;-75
2021/12/20 06:16:47;;;;;;;;;;;;;;;-2.38;100.00;101559.38;5045332;22;3838;-73
2021/12/20 06:19:14;;;;;;;;;;;;;;;-2.40;100.00;101565.63;5030030;28;955;-71
2021/12/20 06:21:40;;;;;;;;;;;;;;;-2.39;100.00;101562.06;5029788;28;887;-74
2021/12/20 06:24:07;;;;;;;;;;;;;;;-2.40;100.00;101560.31;5028379;28;1285;-73
2021/12/20 06:26:33;;;;;;;;;;;;;;;-2.39;100.00;101564.75;5032053;28;1922;-74
2021/12/20 06:28:59;;;;;;;;;;;;;;;-2.38;100.00;101559.38;5009320;28;1388;-76
2021/12/20 06:31:26;;;;;;;;;;;;;;;-2.38;100.00;101564.72;5034605;28;1526;-74
2021/12/20 06:33:53;;;;;;;;;;;;;;;-2.44;100.00;101570.09;5013245;28;1192;-75
2021/12/20 06:36:21;;;;;;;;;;;;;;;-2.50;100.00;101564.84;5000052;28;1432;-75
2021/12/20 06:38:47;;;;;;;;;;;;;;;-2.53;100.00;101572.88;5026544;28;1130;-73
2021/12/20 06:41:14;;;;;;;;;;;;;;;-2.58;100.00;101572.97;5032866;28;1425;-73
2021/12/20 06:43:40;;;;;;;;;;;;;;;-2.63;100.00;101574.78;5033251;28;975;-73
2021/12/20 06:46:07;;;;;;;;;;;;;;;-2.65;100.00;101573.06;5033016;28;1918;-74
2021/12/20 06:48:33;;;;;;;;;;;;;;;-2.73;100.00;101576.66;5032751;28;1189;-76
2021/12/20 06:51:01;;;;;;;;;;;;;;;-2.77;100.00;101574.09;5014555;28;1439;-71
2021/12/20 06:53:27;;;;;;;;;;;;;;;-2.80;100.00;101576.78;5032366;28;1534;-74
2021/12/20 06:55:54;;;;;;;;;;;;;;;-2.73;100.00;101576.66;5015088;28;1578;-71
2021/12/20 06:58:20;;;;;;;;;;;;;;;-2.60;100.00;101580.06;5032534;28;1552;-73
2021/12/20 07:00:46;;;;;;;;;;;;;;;-2.52;100.00;101588.81;5023768;28;1558;-74
2021/12/20 07:03:12;;;;;;;;;;;;;;;-2.52;100.00;101588.81;5015304;28;1613;-73
2021/12/20 07:05:39;;;;;;;;;;;;;;;-2.59;100.00;101592.47;5031310;28;1993;-74
2021/12/20 07:08:06;;;;;;;;;;;;;;;-2.64;100.00;101588.09;5032398;28;1368;-73
2021/12/20 07:10:33;;;;;;;;;;;;;;;-2.63;100.00;101590.75;5015194;28;1605;-73
2021/12/20 07:12:59;;;;;;;;;;;;;;;-2.64;100.00;101599.63;5032422;28;2062;-73
2021/12/20 07:15:26;;;;;;;;;;;;;;;-2.68;100.00;101603.22;4995748;28;1356;-73
2021/12/20 07:17:52;;;;;;;;;;;;;;;-2.69;100.00;101601.44;5003982;28;1319;-74
2021/12/20 07:20:19;;;;;;;;;;;;;;;-2.72;100.00;101606.81;5032651;28;1533;-73
2021/12/20 07:22:45;;;;;;;;;;;;;;;-2.71;100.00;101605.91;5032017;28;1362;-75
2021/12/20 07:25:13;;;;;;;;;;;;;;;-2.66;100.00;101609.38;5006459;28;1595;-73
2021/12/20 07:27:39;;;;;;;;;;;;;;;-2.65;100.00;101605.81;5032335;28;1989;-70
2021/12/20 07:30:06;;;;;;;;;;;;;;;-2.65;100.00;101602.28;5031530;28;1499;-75
2021/12/20 07:32:32;;;;;;;;;;;;;;;-2.67;100.00;101614.72;5014444;28;1594;-73
2021/12/20 07:34:59;;;;;;;;;;;;;;;-2.70;100.00;101610.31;5032147;28;1499;-73
2021/12/20 07:37:26;;;;;;;;;;;;;;;-2.67;100.00;101615.59;5031638;28;1427;-72
2021/12/20 07:39:53;;;;;;;;;;;;;;;-2.61;100.00;101612.84;5031105;28;1287;-71
2021/12/20 07:42:20;;;;;;;;;;;;;;;-2.56;100.00;101620.78;5032063;28;1566;-70
2021/12/20 07:44:47;;;;;;;;;;;;;;;-2.45;100.00;101628.63;5032482;28;1499;-72
2021/12/20 07:47:13;;;;;;;;;;;;;;;-2.32;100.00;101629.38;5031658;28;1996;-71
2021/12/20 07:49:39;;;;;;;;;;;;;;;-2.18;100.00;101630.03;5020644;28;1382;-71
2021/12/20 07:52:06;;;;;;;;;;;;;;;-2.03;100.00;101632.50;5019076;28;1175;-72
2021/12/20 07:54:32;;;;;;;;;;;;;;;-1.85;100.00;101633.97;4998325;28;1078;-73
2021/12/20 07:56:58;;;;;;;;;;;;;;;-1.69;100.00;101633.75;5031414;28;1515;-74
2021/12/20 07:59:26;;;;;;;;;;;;;;;-1.57;100.00;101633.56;5036188;28;1428;-72
2021/12/20 08:01:52;;;;;;;;;;;;;;;-1.48;100.00;101640.53;5013468;28;1487;-73
2021/12/20 08:04:21;;;;;;;;;;;;;;;-1.45;100.00;101647.59;5030684;28;1436;-74
2021/12/20 08:06:47;;;;;;;;;;;;;;;-1.46;100.00;101640.50;5031192;28;1902;-71
2021/12/20 08:09:14;;;;;;;;;;;;;;;-1.46;100.00;101653.81;5037698;28;1519;-73
2021/12/20 08:11:40;;;;;;;;;;;;;;;-1.46;100.00;101656.47;5037874;28;1545;-74
2021/12/20 08:14:07;;;;;;;;;;;;;;;-1.43;100.00;101661.75;5013998;28;1586;-72
2021/12/20 08:16:34;;;;;;;;;;;;;;;-1.42;100.00;101663.50;5030758;28;1558;-73
2021/12/20 08:19:01;;;;;;;;;;;;;;;-1.26;100.00;101659.69;5031104;28;1264;-70
2021/12/20 08:21:27;;;;;;;;;;;;;;;-1.01;100.00;101664.59;5031795;28;1320;-73
2021/12/20 08:23:53;;;;;;;;;;;;;;;-0.72;100.00;101661.38;5035965;28;1523;-75
2021/12/20 08:26:20;;;;;;;;;;;;;;;-0.34;100.00;101670.38;5049652;28;1910;-71
2021/12/20 08:28:46;;;;;;;;;;;;;;;-0.04;100.00;101672.44;5031525;28;982;-70
2021/12/20 08:31:13;;;;;;;;;;;;;;;0.18;100.00;101672.00;5032000;28;1244;-70
2021/12/20 08:33:40;;;;;;;;;;;;;;;0.27;100.00;101653.94;5013278;28;1593;-74
2021/12/20 08:36:09;;;;;;;;;;;;;;;0.38;100.00;101667.03;5014435;28;1503;-70
2021/12/20 08:38:35;;;;;;;;;;;;;;;0.47;100.00;101661.47;5028924;28;1816;-71
2021/12/20 08:41:02;;;;;;;;;;;;;;;0.58;100.00;101658.53;5013957;28;1391;-72
2021/12/20 08:43:29;;;;;;;;;;;;;;;0.49;100.00;101659.66;5007819;28;1229;-75
2021/12/20 08:45:56;;;;;;;;;;;;;;;0.77;100.00;101656.28;5014122;28;1927;-71
2021/12/20 08:48:22;;;;;;;;;;;;;;;0.74;100.00;101652.84;5014138;28;1327;-74
2021/12/20 08:50:50;;;;;;;;;;;;;;;0.87;100.00;101656.03;5032021;28;1629;-73
2021/12/20 08:53:16;;;;;;;;;;;;;;;1.04;100.00;101660.97;5031026;28;1265;-74
2021/12/20 08:55:42;;;;;;;;;;;;;;;1.36;100.00;101661.88;5031499;28;1388;-73
2021/12/20 08:58:09;;;;;;;;;;;;;;;1.45;100.00;101659.81;5030887;28;1399;-74
2021/12/20 09:00:36;;;;;;;;;;;;;;;1.59;100.00;101654.09;5031135;28;1223;-74
2021/12/20 09:03:03;;;;;;;;;;;;;;;1.71;100.00;101657.31;5020009;28;1232;-74
2021/12/20 09:05:30;;;;;;;;;;;;;;;1.70;100.00;101659.13;5012817;28;1573;-73
2021/12/20 09:08:00;;;;;;;;;;;;;;;1.70;100.00;101659.13;5030949;28;1914;-75
2021/12/20 09:10:27;;;;;;;;;;;;;;;1.86;100.00;101662.22;5030399;28;1455;-74
2021/12/20 09:12:54;;;;;;;;;;;;;;;1.74;100.00;101665.25;5013548;28;1344;-75
2021/12/20 09:15:20;;;;;;;;;;;;;;;1.97;100.00;101676.16;5031107;28;1097;-71
2021/12/20 09:17:47;;;;;;;;;;;;;;;2.00;100.00;101676.09;5030647;28;1475;-72
2021/12/20 09:20:16;;;;;;;;;;;;;;;2.16;100.00;101676.50;5030733;28;1638;-71
2021/12/20 09:22:50;;;;;;;;;;;;;;;2.43;100.00;101679.22;5012224;28;1323;-74
2021/12/20 09:25:19;;;;;;;;;;;;;;;2.60;100.00;101677.81;5027096;28;1018;-74
2021/12/20 09:27:45;;;;;;;;;;;;;;;2.78;100.00;101681.66;5035227;28;1987;-74
2021/12/20 09:30:12;;;;;;;;;;;;;;;2.94;100.00;101679.34;5031398;28;1561;-74
2021/12/20 09:32:38;;;;;;;;;;;;;;;3.41;100.00;101684.88;5030726;28;1557;-74
2021/12/20 09:35:05;;;;;;;;;;;;;;;3.52;100.00;101676.41;5013020;28;1470;-73
2021/12/20 09:37:31;;;;;;;;;;;;;;;3.59;100.00;101677.06;5010008;28;1514;-72
2021/12/20 09:39:59;;;;;;;;;;;;;;;3.81;100.00;101675.34;5012260;28;1367;-74
2021/12/20 09:42:27;;;;;;;;;;;;;;;3.98;100.00;101665.75;5029622;28;1585;-74
2021/12/20 09:44:54;;;;;;;;;;;;;;;4.14;100.00;101668.72;5030335;28;1538;-72
2021/12/20 09:47:20;;;;;;;;;;;;;;;4.50;100.00;101670.88;5012155;28;1915;-73
2021/12/20 09:49:47;;;;;;;;;;;;;;;4.62;100.00;101674.88;5030239;28;1292;-73
2021/12/20 09:52:13;;;;;;;;;;;;;;;4.96;100.00;101673.47;5030162;28;1276;-73
2021/12/20 09:54:39;;;;;;;;;;;;;;;4.99;100.00;101676.91;5012594;28;922;-72
2021/12/20 09:57:08;;;;;;;;;;;;;;;4.92;100.00;101683.50;5009983;28;1480;-73
2021/12/20 09:59:37;;;;;;;;;;;;;;;4.88;100.00;101686.34;5028798;28;1077;-72
2021/12/20 10:02:06;;;;;;;;;;;;;;;4.66;100.00;101695.31;5027918;28;1249;-72
2021/12/20 10:04:33;;;;;;;;;;;;;;;4.54;100.00;101694.00;5012040;28;1419;-73
2021/12/20 10:07:01;;;;;;;;;;;;;;;4.25;100.00;101697.84;5017064;28;1910;-72
2021/12/20 10:09:31;;;;;;;;;;;;;;;4.00;100.00;101694.31;5029205;28;1160;-72
2021/12/20 10:12:11;;;;;;;;;;;;;;;4.02;100.00;101689.78;5012218;28;1491;-73
2021/12/20 10:14:56;;;;;;;;;;;;;;;4.21;100.00;101696.22;5029963;28;895;-74
2021/12/20 10:17:26;;;;;;;;;;;;;;;4.34;100.00;101701.09;5029794;28;1364;-73
2021/12/20 10:19:52;;;;;;;;;;;;;;;4.46;100.00;101702.41;5012575;28;1297;-74
2021/12/20 10:22:28;;;;;;;;;;;;;;;4.02;100.00;101695.16;5011986;28;1534;-74
2021/12/20 10:24:55;;;;;;;;;;;;;;;3.68;100.00;101698.22;5004685;28;1114;-71
2021/12/20 10:27:28;;;;;;;;;;;;;;;3.27;100.00;101722.91;5029777;28;1981;-71
2021/12/20 10:29:54;;;;;;;;;;;;;;;2.96;100.00;101715.91;5011979;28;1511;-70
2021/12/20 10:32:35;;;;;;;;;;;;;;;2.89;100.00;101724.25;5029862;28;1534;-74
2021/12/20 10:35:03;;;;;;;;;;;;;;;2.80;100.00;101718.22;5011219;28;1319;-74
2021/12/20 10:37:38;;;;;;;;;;;;;;;2.90;100.00;101717.94;5008985;28;1360;-73
2021/12/20 10:40:05;;;;;;;;;;;;;;;2.85;100.00;101724.31;5017969;28;1564;-71
2021/12/20 10:42:41;;;;;;;;;;;;;;;2.80;100.00;101720.91;5040454;28;1521;-70
2021/12/20 10:45:07;;;;;;;;;;;;;;;2.81;100.00;101733.41;5030156;28;1566;-70
2021/12/20 10:47:34;;;;;;;;;;;;;;;2.93;100.00;101728.56;5032232;28;1922;-73
2021/12/20 10:50:19;;;;;;;;;;;;;;;2.88;100.00;101725.16;5029615;28;1614;-71
2021/12/20 10:52:46;;;;;;;;;;;;;;;2.98;100.00;101731.94;5029645;28;1168;-72
2021/12/20 10:55:13;;;;;;;;;;;;;;;3.14;100.00;101721.59;5028990;28;1698;-75
2021/12/20 10:57:39;;;;;;;;;;;;;;;3.18;100.00;101718.75;5011520;28;1409;-74
2021/12/20 11:00:17;;;;;;;;;;;;;;;3.18;100.00;101725.94;5029246;28;1515;-74
2021/12/20 11:06:13;;;;;;;;;;;;;;;3.36;100.00;101732.47;4988191;28;1392;-74
2021/12/20 11:11:34;;;;;;;;;;;;;;;3.42;100.00;101726.00;5004891;28;1518;-72
2021/12/20 11:14:01;;;;;;;;;;;;;;;3.45;100.00;101728.59;5011683;28;1460;-73
2021/12/20 11:16:28;;;;;;;;;;;;;;;3.48;100.00;101728.47;5032125;28;1368;-73
2021/12/20 11:19:11;;;;;;;;;;;;;;;3.50;100.00;101731.97;5032581;28;1586;-73
2021/12/20 11:21:38;;;;;;;;;;;;;;;3.42;100.00;101726.00;5032792;28;1585;-73
2021/12/20 11:24:11;;;;;;;;;;;;;;;3.45;100.00;101718.72;5014654;28;1284;-71
2021/12/20 11:26:38;;;;;;;;;;;;;;;3.42;100.00;101728.69;5031352;28;1479;-74
2021/12/20 11:29:04;;;;;;;;;;;;;;;3.46;100.00;101722.28;5026386;28;1922;-73
2021/12/20 11:31:32;;;;;;;;;;;;;;;3.53;100.00;101721.13;5014789;28;1332;-73
2021/12/20 11:33:59;;;;;;;;;;;;;;;3.58;100.00;101718.28;5031739;28;1570;-73
2021/12/20 11:36:26;;;;;;;;;;;;;;;3.52;100.00;101712.19;5013922;28;1364;-74
2021/12/20 11:38:53;;;;;;;;;;;;;;;3.65;100.00;101717.13;5031979;28;1319;-71
2021/12/20 11:41:21;;;;;;;;;;;;;;;3.85;100.00;101719.94;5048509;28;1393;-72
2021/12/20 11:43:47;;;;;;;;;;;;;;;4.00;100.00;101707.75;5014860;28;1309;-73
2021/12/20 11:46:14;;;;;;;;;;;;;;;4.22;100.00;101714.97;5014163;28;1329;-73
2021/12/20 11:48:42;;;;;;;;;;;;;;;4.34;100.00;101710.94;5030610;28;1918;-73
2021/12/20 11:51:09;;;;;;;;;;;;;;;4.31;100.00;101703.00;5032401;28;1006;-72
2021/12/20 11:53:36;;;;;;;;;;;;;;;4.21;100.00;101712.34;5032482;28;1506;-72
2021/12/20 11:56:03;;;;;;;;;;;;;;;4.15;100.00;101703.59;5043928;28;1346;-71
2021/12/20 11:58:33;;;;;;;;;;;;;;;4.16;100.00;101705.34;5045536;28;1603;-75
2021/12/20 12:01:00;;;;;;;;;;;;;;;4.15;100.00;101708.97;5032403;28;1144;-71
2021/12/20 12:03:28;;;;;;;;;;;;;;;4.15;100.00;101714.34;5034987;28;1280;-73
2021/12/20 12:05:55;;;;;;;;;;;;;;;4.20;100.00;101706.13;5034218;28;1514;-73
2021/12/20 12:08:23;;;;;;;;;;;;;;;4.21;100.00;101715.03;5013639;28;1910;-72
2021/12/20 12:10:49;;;;;;;;;;;;;;;4.02;100.00;101702.31;5013743;28;1395;-73
2021/12/20 12:13:17;;;;;;;;;;;;;;;3.91;100.00;101709.91;5014262;28;1570;-71
2021/12/20 12:15:52;;;;;;;;;;;;;;;3.90;100.00;101710.84;5032609;28;1431;-72
2021/12/20 12:18:19;;;;;;;;;;;;;;;3.78;100.00;101713.06;5047451;22;3668;-73
2021/12/20 12:20:48;;;;;;;;;;;;;;;3.75;100.00;101713.16;5018561;28;1514;-72
2021/12/20 12:23:16;;;;;;;;;;;;;;;3.73;100.00;101714.16;5022162;28;1525;-72
2021/12/20 12:25:44;;;;;;;;;;;;;;;3.67;100.00;101713.47;5046268;28;1434;-73
2021/12/20 12:28:11;;;;;;;;;;;;;;;3.63;100.00;101705.56;5037538;28;1992;-70
2021/12/20 12:30:38;;;;;;;;;;;;;;;3.62;100.00;101710.06;5051501;28;1401;-70
2021/12/20 12:33:23;;;;;;;;;;;;;;;3.60;100.00;101713.75;5051672;28;1498;-73
2021/12/20 12:35:52;;;;;;;;;;;;;;;3.73;100.00;101723.09;5050131;28;1219;-72
2021/12/20 12:38:19;;;;;;;;;;;;;;;3.85;100.00;101727.16;5046039;28;1649;-71
2021/12/20 12:40:48;;;;;;;;;;;;;;;4.14;100.00;101720.69;5051377;28;1513;-70
2021/12/20 12:43:15;;;;;;;;;;;;;;;4.12;100.00;101724.34;5019166;28;1391;-72
2021/12/20 12:45:50;;;;;;;;;;;;;;;4.05;100.00;101725.50;5041586;28;1510;-71
2021/12/20 12:48:35;;;;;;;;;;;;;;;3.81;100.00;101744.31;5051871;28;1918;-71
2021/12/20 12:51:29;;;;;;;;;;;;;;;3.74;100.00;101732.03;5033188;28;1588;-72
2021/12/20 12:53:56;;;;;;;;;;;;;;;3.66;100.00;101743.94;5051487;28;1580;-71
2021/12/20 12:56:29;;;;;;;;;;;;;;;3.59;100.00;101749.56;5051704;28;1328;-72
2021/12/20 12:59:15;;;;;;;;;;;;;;;3.40;100.00;101750.22;5051353;28;1429;-72
2021/12/20 13:01:42;;;;;;;;;;;;;;;3.24;100.00;101762.41;5035296;28;915;-74